Time;durP1;ratioP1;P1;durP2;ratioP2;P2;SDS_P1;SDS_P2;PMS_P1;PMS_P2;Temp;Humidity;BMP_temperature;BMP_pressure;BME280_temperature;BME280_humidity;BME280_pressure;Samples;Min_cycle;Max_cycle;Signal;HPM_P1;HPM_P2
2023/10/31 00:01:33;;;;;;;7.20;3.77;;;;;;;;;;5052379;28;20335;-57
2023/10/31 00:03:58;;;;;;;11.53;4.63;;;;;;;;;;5052688;28;20036;-57
2023/10/31 00:06:24;;;;;;;6.43;3.60;;;;;;;;;;5052134;28;20427;-58
2023/10/31 00:08:49;;;;;;;8.43;4.03;;;;;;;;;;5051084;28;20017;-60
2023/10/31 00:11:14;;;;;;;8.38;4.03;;;;;;;;;;5051810;28;20055;-59
2023/10/31 00:13:39;;;;;;;6.57;4.03;;;;;;;;;;5052216;28;20036;-58
2023/10/31 00:16:04;;;;;;;8.85;4.18;;;;;;;;;;5052300;28;20369;-59
2023/10/31 00:18:29;;;;;;;8.65;4.80;;;;;;;;;;5051540;28;20035;-57
2023/10/31 00:20:55;;;;;;;8.38;4.38;;;;;;;;;;5050465;28;20036;-58
2023/10/31 00:23:21;;;;;;;7.63;4.55;;;;;;;;;;5051894;28;20477;-60
2023/10/31 00:25:47;;;;;;;7.70;4.60;;;;;;;;;;5052015;28;20074;-58
2023/10/31 00:28:12;;;;;;;11.90;10.70;;;;;;;;;;5051862;28;20017;-59
2023/10/31 00:30:37;;;;;;;9.27;6.55;;;;;;;;;;5049990;28;20020;-60
2023/10/31 00:33:02;;;;;;;9.47;4.87;;;;;;;;;;5059386;28;20020;-58
2023/10/31 00:35:27;;;;;;;7.70;4.20;;;;;;;;;;5062223;28;20484;-58
2023/10/31 00:37:52;;;;;;;9.13;4.05;;;;;;;;;;5069478;28;20444;-58
2023/10/31 00:40:18;;;;;;;8.13;4.20;;;;;;;;;;5055801;28;20110;-58
2023/10/31 00:42:43;;;;;;;8.93;4.87;;;;;;;;;;5052552;28;20019;-58
2023/10/31 00:45:08;;;;;;;7.90;4.30;;;;;;;;;;5064500;28;20040;-59
2023/10/31 00:47:34;;;;;;;9.80;6.35;;;;;;;;;;5052361;28;20045;-57
2023/10/31 00:49:59;;;;;;;9.93;4.35;;;;;;;;;;5051311;28;20389;-58
2023/10/31 00:52:24;;;;;;;8.87;4.40;;;;;;;;;;5052609;28;20086;-59
2023/10/31 00:54:49;;;;;;;10.13;5.53;;;;;;;;;;5051655;28;20039;-58
2023/10/31 00:57:15;;;;;;;7.65;4.72;;;;;;;;;;5059856;28;20033;-57
2023/10/31 00:59:40;;;;;;;11.13;5.97;;;;;;;;;;5049510;28;20535;-58
2023/10/31 01:02:05;;;;;;;10.87;8.67;;;;;;;;;;5063508;28;20009;-58
2023/10/31 01:04:31;;;;;;;7.57;4.63;;;;;;;;;;5065775;28;20030;-59
2023/10/31 01:06:56;;;;;;;9.15;5.05;;;;;;;;;;5053340;28;20096;-58
2023/10/31 01:09:21;;;;;;;11.30;5.07;;;;;;;;;;5063282;28;20017;-59
2023/10/31 01:11:47;;;;;;;24.97;22.97;;;;;;;;;;5054646;28;20035;-57
2023/10/31 01:14:12;;;;;;;10.93;5.65;;;;;;;;;;5058693;28;20016;-59
2023/10/31 01:16:37;;;;;;;10.30;7.53;;;;;;;;;;5052008;28;20020;-58
2023/10/31 01:19:03;;;;;;;7.93;4.53;;;;;;;;;;5063828;28;20059;-58
2023/10/31 01:21:28;;;;;;;9.40;5.68;;;;;;;;;;5051401;28;20021;-57
2023/10/31 01:23:53;;;;;;;12.23;6.55;;;;;;;;;;5051653;28;20040;-59
2023/10/31 01:26:19;;;;;;;11.27;5.47;;;;;;;;;;5051265;28;20059;-59
2023/10/31 01:28:44;;;;;;;7.70;4.80;;;;;;;;;;5051102;28;20510;-58
2023/10/31 01:31:09;;;;;;;8.87;5.20;;;;;;;;;;5049494;28;20029;-59
2023/10/31 01:33:34;;;;;;;8.60;4.43;;;;;;;;;;5051155;28;20020;-58
2023/10/31 01:36:00;;;;;;;11.52;5.95;;;;;;;;;;5050768;28;20469;-58
2023/10/31 01:38:25;;;;;;;10.13;5.27;;;;;;;;;;5051147;28;20017;-56
2023/10/31 01:40:50;;;;;;;9.73;6.70;;;;;;;;;;5048962;28;20381;-58
2023/10/31 01:43:39;;;;;;;8.60;5.53;;;;;;;;;;5050773;28;20021;-58
2023/10/31 01:46:04;;;;;;;9.00;5.10;;;;;;;;;;5045391;28;20036;-58
2023/10/31 01:48:31;;;;;;;9.23;5.82;;;;;;;;;;5051239;28;20021;-58
2023/10/31 01:50:59;;;;;;;8.45;7.20;;;;;;;;;;5049057;28;20017;-57
2023/10/31 01:53:25;;;;;;;9.07;5.05;;;;;;;;;;5050948;28;20021;-60
2023/10/31 01:55:52;;;;;;;8.77;5.35;;;;;;;;;;5050595;28;20025;-60
2023/10/31 01:58:17;;;;;;;8.70;4.97;;;;;;;;;;5050157;28;20469;-57
2023/10/31 02:00:43;;;;;;;9.80;4.78;;;;;;;;;;5048812;28;20036;-59
2023/10/31 02:03:08;;;;;;;9.43;6.82;;;;;;;;;;5050491;28;20024;-58
2023/10/31 02:05:34;;;;;;;9.20;5.67;;;;;;;;;;5050647;28;20021;-59
2023/10/31 02:07:59;;;;;;;9.00;4.40;;;;;;;;;;5050739;28;20434;-58
2023/10/31 02:10:24;;;;;;;10.13;5.03;;;;;;;;;;5047119;28;20054;-58
2023/10/31 02:12:49;;;;;;;12.27;9.70;;;;;;;;;;5050414;28;20021;-59
2023/10/31 02:15:15;;;;;;;9.75;5.85;;;;;;;;;;5050685;28;20108;-58
2023/10/31 02:17:40;;;;;;;9.47;6.60;;;;;;;;;;5061370;28;20556;-59
2023/10/31 02:20:05;;;;;;;11.90;5.73;;;;;;;;;;5050652;28;20792;-60
2023/10/31 02:22:30;;;;;;;9.70;5.13;;;;;;;;;;5051357;28;20017;-59
2023/10/31 02:24:56;;;;;;;9.83;5.33;;;;;;;;;;5054487;28;20082;-59
2023/10/31 02:27:21;;;;;;;9.57;5.00;;;;;;;;;;5053094;28;20103;-58
2023/10/31 02:29:46;;;;;;;10.83;5.67;;;;;;;;;;5053187;28;20482;-57
2023/10/31 02:32:11;;;;;;;7.83;5.80;;;;;;;;;;5053940;28;20067;-58
2023/10/31 02:34:36;;;;;;;9.07;6.40;;;;;;;;;;5054108;28;20013;-60
2023/10/31 02:37:02;;;;;;;12.23;6.37;;;;;;;;;;5054666;28;20054;-57
2023/10/31 02:39:27;;;;;;;10.27;5.57;;;;;;;;;;5051138;28;20039;-59
2023/10/31 02:41:52;;;;;;;11.00;5.40;;;;;;;;;;5053681;28;20017;-58
2023/10/31 02:44:17;;;;;;;9.40;5.75;;;;;;;;;;5054252;28;20036;-58
2023/10/31 02:46:42;;;;;;;12.03;7.53;;;;;;;;;;5053989;28;20067;-58
2023/10/31 02:49:09;;;;;;;9.35;5.35;;;;;;;;;;5052242;28;20103;-58
2023/10/31 02:51:34;;;;;;;10.60;6.10;;;;;;;;;;5053903;28;20021;-58
2023/10/31 02:53:59;;;;;;;9.77;5.95;;;;;;;;;;5054626;28;20496;-58
2023/10/31 02:56:25;;;;;;;13.40;11.68;;;;;;;;;;5057043;28;20025;-59
2023/10/31 02:58:50;;;;;;;8.75;6.40;;;;;;;;;;5057454;28;20013;-58
2023/10/31 03:01:17;;;;;;;11.47;8.13;;;;;;;;;;5054113;28;20107;-58
2023/10/31 03:03:43;;;;;;;16.50;14.93;;;;;;;;;;5033685;28;20445;-58
2023/10/31 03:06:08;;;;;;;13.50;8.90;;;;;;;;;;5051244;28;20020;-58
2023/10/31 03:08:33;;;;;;;13.70;8.57;;;;;;;;;;5053455;28;20480;-59
2023/10/31 03:10:58;;;;;;;15.13;9.30;;;;;;;;;;5052055;28;20036;-59
2023/10/31 03:13:23;;;;;;;12.87;9.27;;;;;;;;;;5053476;28;20075;-59
2023/10/31 03:15:48;;;;;;;12.70;8.75;;;;;;;;;;5052182;28;20094;-60
2023/10/31 03:18:14;;;;;;;12.13;8.40;;;;;;;;;;5053319;28;20048;-58
2023/10/31 03:20:39;;;;;;;14.55;11.43;;;;;;;;;;5050084;28;20021;-58
2023/10/31 03:23:05;;;;;;;13.33;9.63;;;;;;;;;;5053534;28;20017;-58
2023/10/31 03:25:30;;;;;;;16.07;10.80;;;;;;;;;;5053770;28;20431;-59
2023/10/31 03:27:55;;;;;;;18.27;11.47;;;;;;;;;;5053804;28;20438;-59
2023/10/31 03:30:20;;;;;;;16.97;11.67;;;;;;;;;;5051299;28;20024;-59
2023/10/31 03:32:45;;;;;;;19.30;11.93;;;;;;;;;;5053502;28;20033;-58
2023/10/31 03:35:11;;;;;;;19.63;12.67;;;;;;;;;;5053936;28;20029;-59
2023/10/31 03:37:39;;;;;;;20.73;13.03;;;;;;;;;;5053868;28;20052;-58
2023/10/31 03:40:05;;;;;;;18.95;13.77;;;;;;;;;;5051754;28;20045;-58
2023/10/31 03:42:30;;;;;;;21.52;12.88;;;;;;;;;;5051486;28;20536;-59
2023/10/31 03:44:55;;;;;;;21.13;12.32;;;;;;;;;;5053883;28;20025;-59
2023/10/31 03:47:20;;;;;;;21.10;14.35;;;;;;;;;;5054545;28;20017;-60
2023/10/31 03:49:45;;;;;;;20.85;11.70;;;;;;;;;;5051903;28;20029;-58
2023/10/31 03:52:11;;;;;;;18.25;11.57;;;;;;;;;;5055112;28;20025;-58
2023/10/31 03:54:36;;;;;;;20.03;12.17;;;;;;;;;;5064851;28;20044;-58
2023/10/31 03:57:01;;;;;;;24.83;18.43;;;;;;;;;;5062017;28;20036;-59
2023/10/31 03:59:26;;;;;;;16.13;10.18;;;;;;;;;;5069657;28;20025;-59
2023/10/31 04:01:51;;;;;;;20.85;15.02;;;;;;;;;;5058161;28;20538;-58
2023/10/31 04:04:17;;;;;;;18.53;10.60;;;;;;;;;;5052484;28;20036;-58
2023/10/31 04:06:43;;;;;;;17.33;9.32;;;;;;;;;;5052675;28;20427;-60
2023/10/31 04:09:08;;;;;;;15.73;12.35;;;;;;;;;;5054283;28;20009;-58
2023/10/31 04:11:33;;;;;;;13.23;8.60;;;;;;;;;;5058752;28;20040;-58
2023/10/31 04:13:59;;;;;;;12.87;8.13;;;;;;;;;;5053289;28;20435;-58
2023/10/31 04:16:24;;;;;;;15.67;11.00;;;;;;;;;;5053214;28;20024;-59
2023/10/31 04:18:49;;;;;;;24.10;21.83;;;;;;;;;;5058729;28;20070;-59
2023/10/31 04:21:14;;;;;;;14.87;13.23;;;;;;;;;;5051532;28;20032;-59
2023/10/31 04:23:39;;;;;;;11.00;7.77;;;;;;;;;;5054998;28;20020;-59
2023/10/31 04:26:05;;;;;;;12.90;6.67;;;;;;;;;;5070138;28;20013;-58
2023/10/31 04:28:30;;;;;;;10.67;7.17;;;;;;;;;;5071890;28;20435;-58
2023/10/31 04:30:55;;;;;;;10.83;6.30;;;;;;;;;;5057365;28;20078;-59
2023/10/31 04:33:21;;;;;;;9.83;6.37;;;;;;;;;;5051693;28;20029;-59
2023/10/31 04:35:46;;;;;;;9.27;5.40;;;;;;;;;;5053802;28;20032;-59
2023/10/31 04:38:11;;;;;;;10.30;5.95;;;;;;;;;;5050220;28;20420;-58
2023/10/31 04:40:36;;;;;;;28.40;26.48;;;;;;;;;;5052304;28;20085;-59
2023/10/31 04:43:01;;;;;;;7.43;4.32;;;;;;;;;;5052413;28;20024;-59
2023/10/31 04:45:27;;;;;;;8.30;4.17;;;;;;;;;;5061178;28;20181;-59
2023/10/31 04:47:52;;;;;;;10.75;8.98;;;;;;;;;;5047208;28;20108;-59
2023/10/31 04:50:17;;;;;;;7.88;3.67;;;;;;;;;;5040212;28;20033;-59
2023/10/31 04:52:42;;;;;;;5.80;3.47;;;;;;;;;;5052716;28;20035;-59
2023/10/31 04:55:08;;;;;;;6.25;3.40;;;;;;;;;;5062314;28;20012;-60
2023/10/31 04:57:33;;;;;;;6.97;5.00;;;;;;;;;;5051324;28;20025;-58
2023/10/31 04:59:59;;;;;;;6.88;3.08;;;;;;;;;;5058864;28;20087;-59
2023/10/31 05:02:24;;;;;;;5.57;3.03;;;;;;;;;;5059001;28;20028;-59
2023/10/31 05:04:50;;;;;;;4.53;2.63;;;;;;;;;;5051165;28;20108;-60
2023/10/31 05:07:16;;;;;;;;;;;;;;;;;;5052267;28;20075;-59
2023/10/31 05:09:41;;;;;;;4.47;2.30;;;;;;;;;;5052759;28;19959;-59
2023/10/31 05:12:06;;;;;;;6.10;4.70;;;;;;;;;;5050285;28;20031;-60
2023/10/31 05:14:31;;;;;;;5.77;4.57;;;;;;;;;;5052680;28;20040;-59
2023/10/31 05:16:57;;;;;;;5.93;2.43;;;;;;;;;;5053263;28;20033;-59
2023/10/31 05:19:22;;;;;;;5.13;2.35;;;;;;;;;;5060898;28;20106;-59
2023/10/31 05:21:47;;;;;;;6.43;3.93;;;;;;;;;;5049919;28;20017;-59
2023/10/31 05:24:12;;;;;;;4.73;3.03;;;;;;;;;;5051057;28;20032;-57
2023/10/31 05:26:39;;;;;;;3.95;1.98;;;;;;;;;;5062021;28;20031;-59
2023/10/31 05:29:04;;;;;;;4.53;1.75;;;;;;;;;;5057764;28;20453;-59
2023/10/31 05:31:29;;;;;;;5.10;2.07;;;;;;;;;;5057651;28;20099;-59
2023/10/31 05:33:55;;;;;;;4.55;1.95;;;;;;;;;;5053532;28;20485;-59
2023/10/31 05:36:24;;;;;;;4.97;1.77;;;;;;;;;;5059209;28;20054;-58
2023/10/31 05:38:49;;;;;;;3.65;1.60;;;;;;;;;;5054490;28;20021;-59
2023/10/31 05:41:15;;;;;;;5.63;5.03;;;;;;;;;;5048287;28;20612;-59
2023/10/31 05:43:40;;;;;;;5.13;3.25;;;;;;;;;;5049645;28;20098;-57
2023/10/31 05:46:05;;;;;;;3.50;1.70;;;;;;;;;;5064195;28;20020;-64
2023/10/31 05:48:31;;;;;;;2.78;1.27;;;;;;;;;;5047105;28;21059;-59
2023/10/31 05:50:56;;;;;;;4.97;1.70;;;;;;;;;;5040288;28;20473;-59
2023/10/31 05:53:21;;;;;;;6.20;3.70;;;;;;;;;;5045796;28;20014;-58
2023/10/31 05:55:47;;;;;;;4.43;3.85;;;;;;;;;;5043120;28;20570;-59
2023/10/31 05:58:12;;;;;;;4.40;1.50;;;;;;;;;;5037221;28;20031;-59
2023/10/31 06:00:37;;;;;;;5.10;1.48;;;;;;;;;;5048432;28;20037;-59
2023/10/31 06:03:02;;;;;;;3.40;1.30;;;;;;;;;;5046954;28;20437;-59
2023/10/31 06:05:27;;;;;;;4.30;1.50;;;;;;;;;;5045417;28;20425;-60
2023/10/31 06:07:53;;;;;;;4.80;1.53;;;;;;;;;;5043661;28;20021;-59
2023/10/31 06:10:18;;;;;;;4.97;1.80;;;;;;;;;;5044466;28;20029;-60
2023/10/31 06:12:43;;;;;;;3.30;1.33;;;;;;;;;;5050790;28;20009;-58
2023/10/31 06:15:08;;;;;;;4.70;4.30;;;;;;;;;;5048583;28;20441;-58
2023/10/31 06:17:34;;;;;;;4.55;4.15;;;;;;;;;;5050012;28;20041;-60
2023/10/31 06:19:59;;;;;;;81.40;75.90;;;;;;;;;;5048376;28;20052;-60
2023/10/31 06:22:24;;;;;;;3.50;2.37;;;;;;;;;;5050955;28;20029;-58
2023/10/31 06:24:49;;;;;;;136.83;125.03;;;;;;;;;;5048687;28;20036;-58
2023/10/31 06:27:15;;;;;;;2.60;1.70;;;;;;;;;;5050194;28;20103;-60
2023/10/31 06:29:40;;;;;;;50.03;46.73;;;;;;;;;;5050100;28;20029;-59
2023/10/31 06:32:05;;;;;;;2.83;1.77;;;;;;;;;;5050290;28;20020;-59
2023/10/31 06:34:30;;;;;;;4.30;3.90;;;;;;;;;;5046958;28;20058;-60
2023/10/31 06:36:56;;;;;;;1.93;0.90;;;;;;;;;;5050527;28;20093;-59
2023/10/31 06:39:22;;;;;;;4.20;2.17;;;;;;;;;;5044163;28;20021;-58
2023/10/31 06:41:47;;;;;;;3.03;2.25;;;;;;;;;;5049290;28;20021;-60
2023/10/31 06:44:12;;;;;;;4.80;1.20;;;;;;;;;;5068979;28;20089;-59
2023/10/31 06:46:38;;;;;;;5.03;3.93;;;;;;;;;;5069702;28;20032;-59
2023/10/31 06:49:03;;;;;;;3.58;1.00;;;;;;;;;;5060852;28;20032;-58
2023/10/31 06:51:28;;;;;;;23.40;21.80;;;;;;;;;;5050487;28;20552;-60
2023/10/31 06:53:53;;;;;;;4.03;3.03;;;;;;;;;;5056771;28;20435;-59
2023/10/31 06:56:19;;;;;;;4.60;2.40;;;;;;;;;;5055877;28;20056;-62
2023/10/31 06:58:44;;;;;;;3.43;2.90;;;;;;;;;;5057798;28;20385;-60
2023/10/31 07:01:09;;;;;;;12.18;10.65;;;;;;;;;;5049068;28;20021;-61
2023/10/31 07:03:35;;;;;;;8.18;5.22;;;;;;;;;;5050761;28;20468;-61
2023/10/31 07:06:00;;;;;;;5.90;2.77;;;;;;;;;;5048541;28;20404;-61
2023/10/31 07:08:25;;;;;;;3.08;1.17;;;;;;;;;;5054173;28;20021;-61
2023/10/31 07:10:50;;;;;;;5.95;5.40;;;;;;;;;;5054603;28;20082;-61
2023/10/31 07:13:16;;;;;;;3.03;1.57;;;;;;;;;;5049171;28;20365;-61
2023/10/31 07:15:41;;;;;;;4.45;4.00;;;;;;;;;;5051998;28;20031;-61
2023/10/31 07:18:09;;;;;;;2.05;0.82;;;;;;;;;;5054115;28;20096;-62
2023/10/31 07:20:35;;;;;;;3.75;0.90;;;;;;;;;;5063178;28;20059;-61
2023/10/31 07:23:00;;;;;;;3.57;1.03;;;;;;;;;;5064513;28;20715;-60
2023/10/31 07:25:25;;;;;;;3.97;1.07;;;;;;;;;;5049836;28;20036;-62
2023/10/31 07:27:50;;;;;;;2.93;1.00;;;;;;;;;;5050440;28;20096;-62
2023/10/31 07:30:15;;;;;;;2.25;0.75;;;;;;;;;;5055952;28;20025;-62
2023/10/31 07:32:40;;;;;;;3.43;2.27;;;;;;;;;;5051984;28;20092;-62
2023/10/31 07:35:06;;;;;;;4.00;3.40;;;;;;;;;;5051224;28;20020;-61
2023/10/31 07:37:31;;;;;;;4.05;3.72;;;;;;;;;;5054882;28;20024;-61
2023/10/31 07:39:56;;;;;;;3.60;3.30;;;;;;;;;;5045837;28;20048;-62
2023/10/31 07:42:21;;;;;;;6.47;4.83;;;;;;;;;;5057735;28;20078;-60
2023/10/31 07:44:46;;;;;;;7.57;6.97;;;;;;;;;;5041092;28;20528;-62
2023/10/31 07:47:11;;;;;;;3.22;1.95;;;;;;;;;;5047331;28;20110;-61
2023/10/31 07:49:37;;;;;;;3.58;1.55;;;;;;;;;;5046052;28;20096;-62
2023/10/31 07:52:02;;;;;;;2.70;1.57;;;;;;;;;;5042316;28;20476;-60
2023/10/31 07:54:27;;;;;;;2.47;0.70;;;;;;;;;;5046270;28;20028;-61
2023/10/31 07:56:53;;;;;;;10.55;9.85;;;;;;;;;;5042404;28;20009;-60
2023/10/31 07:59:18;;;;;;;2.67;0.70;;;;;;;;;;5061760;28;20109;-59
2023/10/31 08:01:43;;;;;;;2.70;1.77;;;;;;;;;;5062894;28;20035;-60
2023/10/31 08:04:08;;;;;;;2.13;0.90;;;;;;;;;;5058462;28;20040;-62
2023/10/31 08:06:33;;;;;;;2.17;0.70;;;;;;;;;;5051177;28;20090;-62
2023/10/31 08:08:59;;;;;;;3.63;2.30;;;;;;;;;;5052959;28;20025;-61
2023/10/31 08:11:24;;;;;;;2.30;1.33;;;;;;;;;;5052253;28;20045;-62
2023/10/31 08:13:49;;;;;;;17.80;16.43;;;;;;;;;;5054462;28;21552;-62
2023/10/31 08:16:21;;;;;;;2.73;2.30;;;;;;;;;;5046364;28;20546;-62
2023/10/31 08:18:46;;;;;;;27.55;25.90;;;;;;;;;;5047116;28;20398;-64
2023/10/31 08:21:12;;;;;;;2.40;0.90;;;;;;;;;;5047272;28;20029;-62
2023/10/31 08:23:37;;;;;;;4.43;3.30;;;;;;;;;;5069207;28;20036;-62
2023/10/31 08:26:02;;;;;;;4.97;0.80;;;;;;;;;;5043382;28;20013;-63
2023/10/31 08:28:28;;;;;;;6.35;5.85;;;;;;;;;;5044910;28;20029;-62
2023/10/31 08:30:53;;;;;;;17.88;16.73;;;;;;;;;;5042735;28;20036;-60
2023/10/31 08:33:18;;;;;;;14.82;13.77;;;;;;;;;;5056167;28;20040;-61
2023/10/31 08:35:44;;;;;;;19.63;18.53;;;;;;;;;;5055236;28;20047;-63
2023/10/31 08:38:09;;;;;;;2.88;2.55;;;;;;;;;;5050166;28;20039;-62
2023/10/31 08:40:34;;;;;;;3.70;3.43;;;;;;;;;;5051256;28;20025;-62
2023/10/31 08:43:00;;;;;;;30.83;29.00;;;;;;;;;;5051734;28;20028;-62
2023/10/31 08:45:26;;;;;;;66.18;59.58;;;;;;;;;;5052470;28;20036;-60
2023/10/31 08:47:51;;;;;;;20.70;19.33;;;;;;;;;;5052313;28;20025;-63
2023/10/31 08:50:16;;;;;;;28.97;27.07;;;;;;;;;;5051497;28;20041;-63
2023/10/31 08:52:41;;;;;;;5.70;5.30;;;;;;;;;;5048797;28;20030;-63
2023/10/31 08:55:07;;;;;;;118.33;107.50;;;;;;;;;;5041375;28;20016;-62
2023/10/31 08:57:33;;;;;;;33.60;31.25;;;;;;;;;;5051017;28;20493;-62
2023/10/31 08:59:58;;;;;;;;;;;;;;;;;;5051398;28;20572;-61
2023/10/31 09:02:23;;;;;;;3.40;3.10;;;;;;;;;;5044878;28;20383;-62
2023/10/31 09:04:48;;;;;;;12.47;11.70;;;;;;;;;;5051449;28;20021;-62
2023/10/31 09:07:14;;;;;;;20.58;19.13;;;;;;;;;;5050767;28;20029;-61
2023/10/31 09:09:39;;;;;;;15.10;14.20;;;;;;;;;;5045394;28;20021;-62
2023/10/31 09:12:05;;;;;;;6.43;5.95;;;;;;;;;;5049065;28;20013;-61
2023/10/31 09:14:30;;;;;;;12.73;11.93;;;;;;;;;;5050941;28;20400;-62
2023/10/31 09:16:56;;;;;;;11.13;10.43;;;;;;;;;;5051246;28;20373;-61
2023/10/31 09:19:21;;;;;;;5.37;4.90;;;;;;;;;;5048368;28;20125;-61
2023/10/31 09:21:46;;;;;;;8.00;7.47;;;;;;;;;;5050836;28;20013;-62
2023/10/31 09:24:11;;;;;;;38.07;35.57;;;;;;;;;;5051117;28;20037;-61
2023/10/31 09:26:37;;;;;;;3.80;3.10;;;;;;;;;;5051111;28;20017;-62
2023/10/31 09:29:02;;;;;;;11.38;10.65;;;;;;;;;;5049721;28;20017;-62
2023/10/31 09:31:28;;;;;;;84.47;77.40;;;;;;;;;;5049793;28;20025;-62
2023/10/31 09:33:53;;;;;;;3.30;2.83;;;;;;;;;;5045254;28;20473;-63
2023/10/31 09:36:19;;;;;;;98.10;91.20;;;;;;;;;;5050063;28;20055;-64
2023/10/31 09:38:44;;;;;;;25.38;23.83;;;;;;;;;;5051664;28;20124;-60
2023/10/31 09:41:10;;;;;;;2.58;1.88;;;;;;;;;;5048333;28;20028;-61
2023/10/31 09:43:35;;;;;;;76.87;69.53;;;;;;;;;;5051622;28;20017;-63
2023/10/31 09:46:02;;;;;;;38.60;36.53;;;;;;;;;;5047467;28;20017;-62
2023/10/31 09:48:27;;;;;;;4.93;4.03;;;;;;;;;;5051985;28;20044;-61
2023/10/31 09:50:53;;;;;;;9.43;8.83;;;;;;;;;;5051416;28;20059;-62
2023/10/31 09:53:19;;;;;;;11.95;11.23;;;;;;;;;;5051982;28;20762;-61
2023/10/31 09:55:45;;;;;;;9.23;8.63;;;;;;;;;;5056283;28;20517;-63
2023/10/31 09:58:10;;;;;;;2.67;1.80;;;;;;;;;;5047613;28;20022;-63
2023/10/31 10:00:37;;;;;;;3.30;1.60;;;;;;;;;;5045363;28;20020;-62
2023/10/31 10:03:03;;;;;;;4.13;3.72;;;;;;;;;;5050901;28;20028;-61
2023/10/31 10:05:29;;;;;;;8.20;6.75;;;;;;;;;;5049468;28;20033;-62
2023/10/31 10:07:55;;;;;;;23.85;22.05;;;;;;;;;;5050556;28;20424;-60
2023/10/31 10:10:20;;;;;;;2.15;0.95;;;;;;;;;;5050651;28;20047;-62
2023/10/31 10:12:46;;;;;;;19.27;18.20;;;;;;;;;;5049965;28;20484;-62
2023/10/31 10:15:12;;;;;;;2.42;0.65;;;;;;;;;;5048802;28;20016;-62
2023/10/31 10:17:39;;;;;;;28.10;26.60;;;;;;;;;;5047765;28;20085;-61
2023/10/31 10:20:05;;;;;;;1.98;0.73;;;;;;;;;;5051440;28;20028;-63
2023/10/31 10:22:30;;;;;;;101.80;94.95;;;;;;;;;;5050362;28;20024;-62
2023/10/31 10:24:56;;;;;;;17.43;16.43;;;;;;;;;;5052695;28;20561;-61
2023/10/31 10:27:21;;;;;;;3.47;2.77;;;;;;;;;;5049140;28;20108;-61
2023/10/31 10:29:46;;;;;;;4.87;3.50;;;;;;;;;;5050153;28;20469;-63
2023/10/31 10:32:12;;;;;;;1.70;1.35;;;;;;;;;;5050600;28;20025;-62
2023/10/31 10:34:37;;;;;;;1.57;1.23;;;;;;;;;;5050601;28;20089;-63
2023/10/31 10:37:04;;;;;;;5.00;4.67;;;;;;;;;;5050393;28;20415;-61
2023/10/31 10:39:32;;;;;;;1.48;0.68;;;;;;;;;;5049449;28;20032;-63
2023/10/31 10:42:00;;;;;;;23.25;21.42;;;;;;;;;;5053351;28;20024;-60
2023/10/31 10:44:32;;;;;;;3.90;3.55;;;;;;;;;;5054297;28;20392;-61
2023/10/31 10:46:58;;;;;;;30.50;28.70;;;;;;;;;;5052171;28;20392;-62
2023/10/31 10:49:24;;;;;;;1.77;0.83;;;;;;;;;;5054205;28;20009;-62
2023/10/31 10:51:58;;;;;;;48.60;45.58;;;;;;;;;;5048756;28;20020;-63
2023/10/31 10:54:47;;;;;;;8.70;8.13;;;;;;;;;;5053793;28;20017;-64
2023/10/31 10:57:15;;;;;;;1.58;0.57;;;;;;;;;;5048483;28;20033;-61
2023/10/31 10:59:42;;;;;;;14.00;13.18;;;;;;;;;;5039436;28;20025;-62
2023/10/31 11:02:07;;;;;;;1.77;1.02;;;;;;;;;;5049792;28;20029;-63
2023/10/31 11:04:33;;;;;;;11.25;10.57;;;;;;;;;;5052902;28;20033;-63
2023/10/31 11:06:59;;;;;;;9.05;8.48;;;;;;;;;;5053807;28;20411;-62
2023/10/31 11:09:24;;;;;;;1.60;0.60;;;;;;;;;;5053351;28;20472;-62
2023/10/31 11:11:50;;;;;;;13.63;12.83;;;;;;;;;;5053476;28;20414;-63
2023/10/31 11:14:16;;;;;;;4.05;3.33;;;;;;;;;;5053374;28;20013;-61
2023/10/31 11:16:44;;;;;;;53.28;50.22;;;;;;;;;;5053717;28;20421;-62
2023/10/31 11:19:10;;;;;;;21.38;20.00;;;;;;;;;;5043966;28;20025;-63
2023/10/31 11:21:35;;;;;;;11.18;10.45;;;;;;;;;;5051796;28;20021;-60
2023/10/31 11:24:01;;;;;;;11.77;11.07;;;;;;;;;;5053084;28;20036;-60
2023/10/31 11:26:26;;;;;;;41.20;38.65;;;;;;;;;;5054214;28;20974;-61
2023/10/31 11:28:52;;;;;;;13.73;12.90;;;;;;;;;;5053992;28;20067;-61
2023/10/31 11:31:17;;;;;;;3.67;2.23;;;;;;;;;;5048683;28;20431;-62
2023/10/31 11:33:43;;;;;;;6.40;4.70;;;;;;;;;;5060590;28;20025;-63
2023/10/31 11:36:10;;;;;;;69.50;65.25;;;;;;;;;;5058732;28;20025;-62
2023/10/31 11:38:36;;;;;;;9.68;8.98;;;;;;;;;;5058573;28;20051;-63
2023/10/31 11:41:02;;;;;;;16.35;15.25;;;;;;;;;;5053202;28;20476;-61
2023/10/31 11:43:37;;;;;;;5.35;4.95;;;;;;;;;;5053796;28;20024;-60
2023/10/31 11:46:02;;;;;;;19.58;18.40;;;;;;;;;;5053863;28;20032;-62
2023/10/31 11:48:47;;;;;;;2.88;2.25;;;;;;;;;;5053149;28;20021;-61
2023/10/31 11:51:13;;;;;;;3.45;3.15;;;;;;;;;;5049794;28;20045;-61
2023/10/31 11:53:39;;;;;;;6.63;5.97;;;;;;;;;;5052117;28;20032;-63
2023/10/31 11:56:04;;;;;;;12.02;11.27;;;;;;;;;;5052735;28;20485;-63
2023/10/31 11:58:30;;;;;;;19.75;18.65;;;;;;;;;;5062682;28;20056;-62
2023/10/31 12:01:05;;;;;;;11.25;10.55;;;;;;;;;;5061327;28;20083;-62
2023/10/31 12:03:38;;;;;;;1.48;0.50;;;;;;;;;;5052454;28;20036;-63
2023/10/31 12:06:04;;;;;;;8.25;7.68;;;;;;;;;;5051528;28;20078;-61
2023/10/31 12:08:31;;;;;;;4.38;3.92;;;;;;;;;;5056507;28;20100;-62
2023/10/31 12:11:09;;;;;;;31.83;30.08;;;;;;;;;;5056237;28;20025;-61
2023/10/31 12:13:35;;;;;;;2.15;0.80;;;;;;;;;;5054063;28;20524;-62
2023/10/31 12:16:01;;;;;;;3.55;1.45;;;;;;;;;;5060391;28;20021;-62
2023/10/31 12:18:26;;;;;;;12.38;11.55;;;;;;;;;;5050313;28;20468;-62
2023/10/31 12:20:52;;;;;;;4.50;4.10;;;;;;;;;;5051586;28;20066;-61
2023/10/31 12:23:17;;;;;;;2.22;1.50;;;;;;;;;;5066985;28;20028;-63
2023/10/31 12:25:49;;;;;;;22.00;20.80;;;;;;;;;;5062076;28;20054;-62
2023/10/31 12:28:21;;;;;;;14.52;13.50;;;;;;;;;;5050596;28;20138;-62
2023/10/31 12:30:49;;;;;;;15.15;14.13;;;;;;;;;;5063675;28;20096;-62
2023/10/31 12:33:15;;;;;;;3.58;2.28;;;;;;;;;;5057537;28;20357;-62
2023/10/31 12:35:41;;;;;;;10.82;10.02;;;;;;;;;;5051850;28;20104;-62
2023/10/31 12:38:07;;;;;;;10.65;9.93;;;;;;;;;;5049573;28;20053;-61
2023/10/31 12:40:32;;;;;;;1.77;0.47;;;;;;;;;;5051018;28;20025;-62
2023/10/31 12:42:58;;;;;;;9.27;8.60;;;;;;;;;;5046264;28;20083;-61
2023/10/31 12:45:24;;;;;;;3.60;3.30;;;;;;;;;;5046637;28;20082;-62
2023/10/31 12:48:02;;;;;;;13.52;12.50;;;;;;;;;;5047244;28;20270;-62
2023/10/31 12:50:27;;;;;;;3.42;1.58;;;;;;;;;;5047581;28;20116;-62
2023/10/31 12:52:53;;;;;;;20.00;18.83;;;;;;;;;;5050327;28;20097;-61
2023/10/31 12:55:23;;;;;;;3.00;0.60;;;;;;;;;;5048238;28;20052;-61
2023/10/31 12:57:48;;;;;;;4.53;4.20;;;;;;;;;;5042597;28;20021;-61
2023/10/31 13:00:14;;;;;;;2.40;1.55;;;;;;;;;;5046843;28;20081;-61
2023/10/31 13:02:41;;;;;;;10.80;10.05;;;;;;;;;;5055898;28;20025;-62
2023/10/31 13:05:10;;;;;;;6.07;5.57;;;;;;;;;;5042061;28;20029;-60
2023/10/31 13:07:36;;;;;;;5.53;5.03;;;;;;;;;;5040442;28;20048;-60
2023/10/31 13:10:02;;;;;;;16.63;15.63;;;;;;;;;;5045683;28;20455;-61
2023/10/31 13:12:29;;;;;;;3.03;1.65;;;;;;;;;;5051222;28;20033;-61
2023/10/31 13:14:55;;;;;;;16.20;15.25;;;;;;;;;;5040621;28;20028;-60
2023/10/31 13:17:20;;;;;;;21.17;19.95;;;;;;;;;;5046219;28;20024;-61
2023/10/31 13:19:45;;;;;;;92.43;84.83;;;;;;;;;;5042205;28;20115;-62
2023/10/31 13:22:10;;;;;;;2.87;2.27;;;;;;;;;;5047556;28;20423;-60
2023/10/31 13:24:35;;;;;;;3.10;1.67;;;;;;;;;;5056387;28;20032;-60
2023/10/31 13:27:02;;;;;;;34.38;32.53;;;;;;;;;;5054877;28;20452;-62
2023/10/31 13:29:27;;;;;;;3.13;1.85;;;;;;;;;;5047622;28;20032;-62
2023/10/31 13:31:53;;;;;;;6.00;4.13;;;;;;;;;;5048644;28;20032;-60
2023/10/31 13:34:18;;;;;;;1.30;0.50;;;;;;;;;;5051449;28;20028;-62
2023/10/31 13:36:44;;;;;;;16.00;14.90;;;;;;;;;;5047895;28;20113;-61
2023/10/31 13:39:09;;;;;;;14.38;13.52;;;;;;;;;;5038672;28;20021;-63
2023/10/31 13:41:34;;;;;;;10.50;9.82;;;;;;;;;;5048388;28;20051;-62
2023/10/31 13:43:59;;;;;;;22.83;21.58;;;;;;;;;;5047540;28;20029;-62
2023/10/31 13:46:25;;;;;;;6.73;6.23;;;;;;;;;;5046559;28;20033;-62
2023/10/31 13:48:50;;;;;;;19.17;18.07;;;;;;;;;;5047254;28;20231;-63
2023/10/31 13:51:15;;;;;;;2.03;1.03;;;;;;;;;;5046660;28;20090;-61
2023/10/31 13:53:41;;;;;;;17.00;16.00;;;;;;;;;;5048579;28;20064;-62
2023/10/31 13:56:06;;;;;;;14.70;13.80;;;;;;;;;;5046939;28;20174;-63
2023/10/31 13:58:32;;;;;;;5.40;4.95;;;;;;;;;;5046184;28;20033;-61
2023/10/31 14:00:57;;;;;;;36.17;34.30;;;;;;;;;;5045626;28;20017;-64
2023/10/31 14:03:22;;;;;;;1.53;0.73;;;;;;;;;;5043748;28;20443;-62
2023/10/31 14:05:47;;;;;;;7.00;6.40;;;;;;;;;;5042196;28;20040;-59
2023/10/31 14:08:14;;;;;;;5.38;4.88;;;;;;;;;;5039034;28;20041;-62
2023/10/31 14:10:39;;;;;;;20.67;19.58;;;;;;;;;;5040645;28;20246;-63
2023/10/31 14:13:05;;;;;;;2.58;2.05;;;;;;;;;;5044899;28;20104;-63
2023/10/31 14:15:30;;;;;;;13.30;12.43;;;;;;;;;;5043156;28;20033;-61
2023/10/31 14:17:55;;;;;;;8.03;7.50;;;;;;;;;;5043471;28;20454;-61
2023/10/31 14:20:20;;;;;;;2.90;2.60;;;;;;;;;;5048202;28;20116;-61
2023/10/31 14:22:49;;;;;;;22.43;21.17;;;;;;;;;;5047167;28;20027;-60
2023/10/31 14:25:15;;;;;;;29.67;28.13;;;;;;;;;;5046683;28;20021;-60